sensor_id;sensor_type;location;lat;lon;timestamp;pressure;altitude;pressure_sealevel;temperature;humidity
11085;BME280;5596;46.826;8.650;2022-08-01T00:01:15;96405.31;;;20.84;96.60
11085;BME280;5596;46.826;8.650;2022-08-01T00:03:42;96397.63;;;20.86;95.33
11085;BME280;5596;46.826;8.650;2022-08-01T00:06:09;96393.84;;;20.82;95.37
11085;BME280;5596;46.826;8.650;2022-08-01T00:08:37;96392.13;;;20.86;92.50
11085;BME280;5596;46.826;8.650;2022-08-01T00:11:05;96388.06;;;20.84;91.21
11085;BME280;5596;46.826;8.650;2022-08-01T00:13:34;96388.81;;;20.89;93.92
11085;BME280;5596;46.826;8.650;2022-08-01T00:16:01;96391.03;;;20.87;97.14
11085;BME280;5596;46.826;8.650;2022-08-01T00:18:28;96387.25;;;20.83;95.96
11085;BME280;5596;46.826;8.650;2022-08-01T00:20:55;96395.25;;;20.80;92.60
11085;BME280;5596;46.826;8.650;2022-08-01T00:23:22;96389.19;;;20.83;94.69
11085;BME280;5596;46.826;8.650;2022-08-01T00:25:49;96387.84;;;20.80;92.75
11085;BME280;5596;46.826;8.650;2022-08-01T00:28:18;96382.78;;;20.87;90.25
11085;BME280;5596;46.826;8.650;2022-08-01T00:30:45;96379.22;;;20.87;93.73
11085;BME280;5596;46.826;8.650;2022-08-01T00:33:12;96386.88;;;20.90;95.15
11085;BME280;5596;46.826;8.650;2022-08-01T00:35:39;96391.59;;;20.84;93.31
11085;BME280;5596;46.826;8.650;2022-08-01T00:38:06;96385.63;;;20.82;94.42
11085;BME280;5596;46.826;8.650;2022-08-01T00:40:33;96385.09;;;20.80;97.41
11085;BME280;5596;46.826;8.650;2022-08-01T00:43:00;96383.00;;;20.72;96.03
11085;BME280;5596;46.826;8.650;2022-08-01T00:45:29;96379.16;;;20.73;95.68
11085;BME280;5596;46.826;8.650;2022-08-01T00:47:56;96381.91;;;20.73;95.47
11085;BME280;5596;46.826;8.650;2022-08-01T00:50:23;96389.31;;;20.72;95.09
11085;BME280;5596;46.826;8.650;2022-08-01T00:52:50;96383.56;;;20.69;93.39
11085;BME280;5596;46.826;8.650;2022-08-01T00:55:19;96388.25;;;20.68;92.07
11085;BME280;5596;46.826;8.650;2022-08-01T00:57:47;96369.84;;;20.69;90.48
11085;BME280;5596;46.826;8.650;2022-08-01T01:00:15;96389.75;;;20.80;89.84
11085;BME280;5596;46.826;8.650;2022-08-01T01:02:43;96385.63;;;20.82;91.52
11085;BME280;5596;46.826;8.650;2022-08-01T01:05:10;96383.09;;;20.86;91.30
11085;BME280;5596;46.826;8.650;2022-08-01T01:07:45;96388.94;;;20.79;92.93
11085;BME280;5596;46.826;8.650;2022-08-01T01:10:17;96388.19;;;20.73;92.23
11085;BME280;5596;46.826;8.650;2022-08-01T01:12:57;96377.44;;;20.77;92.15
11085;BME280;5596;46.826;8.650;2022-08-01T01:15:30;96384.94;;;20.71;91.62
11085;BME280;5596;46.826;8.650;2022-08-01T01:18:02;96386.31;;;20.69;91.19
11085;BME280;5596;46.826;8.650;2022-08-01T01:20:33;96382.75;;;20.68;91.09
11085;BME280;5596;46.826;8.650;2022-08-01T01:23:29;96379.72;;;20.70;91.46
11085;BME280;5596;46.826;8.650;2022-08-01T01:26:20;96381.06;;;20.72;91.88
11085;BME280;5596;46.826;8.650;2022-08-01T01:29:11;96377.50;;;20.72;92.34
11085;BME280;5596;46.826;8.650;2022-08-01T01:31:50;96383.81;;;20.72;91.23
11085;BME280;5596;46.826;8.650;2022-08-01T01:34:20;96379.72;;;20.70;90.88
11085;BME280;5596;46.826;8.650;2022-08-01T01:36:48;96384.03;;;20.76;89.23
11085;BME280;5596;46.826;8.650;2022-08-01T01:39:16;96378.38;;;20.67;88.71
11085;BME280;5596;46.826;8.650;2022-08-01T01:41:45;96371.50;;;20.70;89.30
11085;BME280;5596;46.826;8.650;2022-08-01T01:44:15;96374.84;;;20.67;89.49
11085;BME280;5596;46.826;8.650;2022-08-01T01:46:43;96370.69;;;20.69;89.87
11085;BME280;5596;46.826;8.650;2022-08-01T01:49:11;96373.41;;;20.69;90.15
11085;BME280;5596;46.826;8.650;2022-08-01T01:51:40;96380.25;;;20.72;90.41
11085;BME280;5596;46.826;8.650;2022-08-01T01:54:09;96384.19;;;20.66;92.89
11085;BME280;5596;46.826;8.650;2022-08-01T01:56:37;96382.38;;;20.56;93.23
11085;BME280;5596;46.826;8.650;2022-08-01T01:59:19;96391.06;;;20.39;94.84
11085;BME280;5596;46.826;8.650;2022-08-01T02:01:48;96386.78;;;20.28;96.79
11085;BME280;5596;46.826;8.650;2022-08-01T02:04:16;96394.47;;;20.26;96.82
11085;BME280;5596;46.826;8.650;2022-08-01T02:06:45;96399.94;;;20.26;96.71
11085;BME280;5596;46.826;8.650;2022-08-01T02:09:15;96394.47;;;20.26;96.24
11085;BME280;5596;46.826;8.650;2022-08-01T02:11:44;96405.44;;;20.26;97.39
11085;BME280;5596;46.826;8.650;2022-08-01T02:14:13;96404.09;;;20.24;98.99
11085;BME280;5596;46.826;8.650;2022-08-01T02:16:44;96396.53;;;20.16;100.00
11085;BME280;5596;46.826;8.650;2022-08-01T02:19:14;96397.94;;;20.08;100.00
11085;BME280;5596;46.826;8.650;2022-08-01T02:21:47;96399.63;;;20.04;100.00
11085;BME280;5596;46.826;8.650;2022-08-01T02:24:22;96402.72;;;19.97;100.00
11085;BME280;5596;46.826;8.650;2022-08-01T02:26:53;96405.78;;;19.91;100.00
11085;BME280;5596;46.826;8.650;2022-08-01T02:29:27;96404.69;;;19.92;100.00
11085;BME280;5596;46.826;8.650;2022-08-01T02:32:00;96411.25;;;19.91;100.00
11085;BME280;5596;46.826;8.650;2022-08-01T02:34:29;96410.78;;;19.84;100.00
11085;BME280;5596;46.826;8.650;2022-08-01T02:36:58;96412.69;;;19.83;100.00
11085;BME280;5596;46.826;8.650;2022-08-01T02:39:28;96415.50;;;19.78;100.00
11085;BME280;5596;46.826;8.650;2022-08-01T02:42:06;96418.22;;;19.78;100.00
11085;BME280;5596;46.826;8.650;2022-08-01T02:44:37;96408.13;;;19.74;100.00
11085;BME280;5596;46.826;8.650;2022-08-01T02:47:07;96403.19;;;19.76;100.00
11085;BME280;5596;46.826;8.650;2022-08-01T02:49:39;96409.28;;;19.68;100.00
11085;BME280;5596;46.826;8.650;2022-08-01T02:52:11;96415.91;;;19.61;100.00
11085;BME280;5596;46.826;8.650;2022-08-01T02:54:40;96418.16;;;19.54;100.00
11085;BME280;5596;46.826;8.650;2022-08-01T02:57:08;96420.41;;;19.47;100.00
11085;BME280;5596;46.826;8.650;2022-08-01T02:59:37;96418.75;;;19.41;100.00
11085;BME280;5596;46.826;8.650;2022-08-01T03:02:07;96417.22;;;19.30;100.00
11085;BME280;5596;46.826;8.650;2022-08-01T03:04:38;96418.59;;;19.27;100.00
11085;BME280;5596;46.826;8.650;2022-08-01T03:07:07;96416.63;;;19.33;100.00
11085;BME280;5596;46.826;8.650;2022-08-01T03:09:37;96411.41;;;19.37;100.00
11085;BME280;5596;46.826;8.650;2022-08-01T03:12:08;96419.06;;;19.35;100.00
11085;BME280;5596;46.826;8.650;2022-08-01T03:14:40;96409.59;;;19.22;100.00
11085;BME280;5596;46.826;8.650;2022-08-01T03:17:10;96402.28;;;19.07;100.00
11085;BME280;5596;46.826;8.650;2022-08-01T03:19:39;96404.19;;;19.07;100.00
11085;BME280;5596;46.826;8.650;2022-08-01T03:22:08;96403.09;;;19.08;100.00
11085;BME280;5596;46.826;8.650;2022-08-01T03:24:37;96403.69;;;19.05;100.00
11085;BME280;5596;46.826;8.650;2022-08-01T03:27:05;96394.44;;;18.90;100.00
11085;BME280;5596;46.826;8.650;2022-08-01T03:29:34;96403.81;;;18.79;100.00
11085;BME280;5596;46.826;8.650;2022-08-01T03:32:03;96413.63;;;18.85;100.00
11085;BME280;5596;46.826;8.650;2022-08-01T03:34:32;96409.25;;;18.84;100.00
11085;BME280;5596;46.826;8.650;2022-08-01T03:37:04;96396.94;;;18.82;100.00
11085;BME280;5596;46.826;8.650;2022-08-01T03:39:46;96406.22;;;18.86;100.00
11085;BME280;5596;46.826;8.650;2022-08-01T03:42:18;96408.94;;;18.91;100.00
11085;BME280;5596;46.826;8.650;2022-08-01T03:44:53;96418.22;;;18.90;100.00
11085;BME280;5596;46.826;8.650;2022-08-01T03:47:24;96421.50;;;18.92;100.00
11085;BME280;5596;46.826;8.650;2022-08-01T03:49:55;96414.09;;;18.98;100.00
11085;BME280;5596;46.826;8.650;2022-08-01T03:52:24;96413.53;;;19.01;100.00
11085;BME280;5596;46.826;8.650;2022-08-01T03:54:53;96397.16;;;18.96;100.00
11085;BME280;5596;46.826;8.650;2022-08-01T03:57:23;96408.66;;;18.93;100.00
11085;BME280;5596;46.826;8.650;2022-08-01T03:59:51;96405.13;;;18.87;100.00
11085;BME280;5596;46.826;8.650;2022-08-01T04:02:19;96413.13;;;18.78;100.00
11085;BME280;5596;46.826;8.650;2022-08-01T04:04:47;96393.16;;;18.73;100.00
11085;BME280;5596;46.826;8.650;2022-08-01T04:07:25;96408.75;;;18.72;100.00
11085;BME280;5596;46.826;8.650;2022-08-01T04:09:53;96406.03;;;18.67;100.00
11085;BME280;5596;46.826;8.650;2022-08-01T04:12:20;96406.59;;;18.69;100.00
11085;BME280;5596;46.826;8.650;2022-08-01T04:14:48;96415.91;;;18.58;100.00
11085;BME280;5596;46.826;8.650;2022-08-01T04:17:15;96410.19;;;18.60;100.00
11085;BME280;5596;46.826;8.650;2022-08-01T04:19:42;96418.94;;;18.62;100.00
11085;BME280;5596;46.826;8.650;2022-08-01T04:22:11;96420.25;;;18.64;100.00
11085;BME280;5596;46.826;8.650;2022-08-01T04:24:43;96407.94;;;18.67;100.00
11085;BME280;5596;46.826;8.650;2022-08-01T04:27:17;96417.25;;;18.71;100.00
11085;BME280;5596;46.826;8.650;2022-08-01T04:29:45;96419.72;;;18.67;100.00
11085;BME280;5596;46.826;8.650;2022-08-01T04:32:14;96414.56;;;18.61;100.00
11085;BME280;5596;46.826;8.650;2022-08-01T04:34:44;96423.53;;;18.66;100.00
11085;BME280;5596;46.826;8.650;2022-08-01T04:37:14;96421.31;;;18.73;100.00
11085;BME280;5596;46.826;8.650;2022-08-01T04:39:45;96428.75;;;18.68;100.00
11085;BME280;5596;46.826;8.650;2022-08-01T04:42:14;96427.09;;;18.67;100.00
11085;BME280;5596;46.826;8.650;2022-08-01T04:44:42;96428.50;;;18.59;100.00
11085;BME280;5596;46.826;8.650;2022-08-01T04:47:10;96431.19;;;18.64;100.00
11085;BME280;5596;46.826;8.650;2022-08-01T04:49:39;96431.75;;;18.71;100.00
11085;BME280;5596;46.826;8.650;2022-08-01T04:52:06;96443.75;;;18.75;100.00
11085;BME280;5596;46.826;8.650;2022-08-01T04:54:35;96438.28;;;18.75;100.00
11085;BME280;5596;46.826;8.650;2022-08-01T04:57:05;96430.03;;;18.80;100.00
11085;BME280;5596;46.826;8.650;2022-08-01T04:59:33;96425.66;;;18.84;100.00
11085;BME280;5596;46.826;8.650;2022-08-01T05:02:10;96437.63;;;18.99;100.00
11085;BME280;5596;46.826;8.650;2022-08-01T05:04:39;96431.03;;;19.05;100.00
11085;BME280;5596;46.826;8.650;2022-08-01T05:07:07;96437.06;;;19.02;100.00
11085;BME280;5596;46.826;8.650;2022-08-01T05:09:35;96438.97;;;19.01;100.00
11085;BME280;5596;46.826;8.650;2022-08-01T05:12:05;96432.97;;;18.99;100.00
11085;BME280;5596;46.826;8.650;2022-08-01T05:14:33;96432.66;;;19.06;100.00
11085;BME280;5596;46.826;8.650;2022-08-01T05:17:01;96424.44;;;19.11;100.00
11085;BME280;5596;46.826;8.650;2022-08-01T05:19:29;96432.88;;;19.14;100.00
11085;BME280;5596;46.826;8.650;2022-08-01T05:21:57;96430.97;;;19.15;100.00
11085;BME280;5596;46.826;8.650;2022-08-01T05:24:26;96425.03;;;19.03;100.00
11085;BME280;5596;46.826;8.650;2022-08-01T05:26:54;96435.38;;;19.06;100.00
11085;BME280;5596;46.826;8.650;2022-08-01T05:29:22;96427.75;;;19.03;100.00
11085;BME280;5596;46.826;8.650;2022-08-01T05:31:49;96440.25;;;19.19;100.00
11085;BME280;5596;46.826;8.650;2022-08-01T05:34:17;96434.53;;;19.15;99.65
11085;BME280;5596;46.826;8.650;2022-08-01T05:36:44;96430.66;;;19.21;99.15
11085;BME280;5596;46.826;8.650;2022-08-01T05:39:11;96427.66;;;19.18;97.57
11085;BME280;5596;46.826;8.650;2022-08-01T05:41:38;96432.09;;;19.14;99.08
11085;BME280;5596;46.826;8.650;2022-08-01T05:44:06;96430.47;;;19.08;99.99
11085;BME280;5596;46.826;8.650;2022-08-01T05:46:35;96437.03;;;19.07;100.00
11085;BME280;5596;46.826;8.650;2022-08-01T05:49:03;96431.06;;;19.00;100.00
11085;BME280;5596;46.826;8.650;2022-08-01T05:51:31;96423.97;;;18.88;100.00
11085;BME280;5596;46.826;8.650;2022-08-01T05:53:58;96426.47;;;18.85;100.00
11085;BME280;5596;46.826;8.650;2022-08-01T05:56:26;96432.19;;;18.94;100.00
11085;BME280;5596;46.826;8.650;2022-08-01T05:58:53;96427.53;;;18.94;100.00
11085;BME280;5596;46.826;8.650;2022-08-01T06:01:20;96427.31;;;18.85;100.00
11085;BME280;5596;46.826;8.650;2022-08-01T06:03:49;96434.41;;;18.86;100.00
11085;BME280;5596;46.826;8.650;2022-08-01T06:06:16;96427.25;;;18.90;100.00
11085;BME280;5596;46.826;8.650;2022-08-01T06:08:43;96428.91;;;18.97;100.00
11085;BME280;5596;46.826;8.650;2022-08-01T06:11:10;96423.94;;;18.99;100.00
11085;BME280;5596;46.826;8.650;2022-08-01T06:13:37;96428.84;;;19.02;100.00
11085;BME280;5596;46.826;8.650;2022-08-01T06:16:05;96422.53;;;19.06;100.00
11085;BME280;5596;46.826;8.650;2022-08-01T06:18:32;96417.88;;;19.07;100.00
11085;BME280;5596;46.826;8.650;2022-08-01T06:21:00;96421.94;;;19.14;100.00
11085;BME280;5596;46.826;8.650;2022-08-01T06:23:27;96431.00;;;19.10;100.00
11085;BME280;5596;46.826;8.650;2022-08-01T06:25:54;96425.63;;;18.95;100.00
11085;BME280;5596;46.826;8.650;2022-08-01T06:28:21;96425.34;;;18.96;100.00
11085;BME280;5596;46.826;8.650;2022-08-01T06:30:51;96422.06;;;18.94;100.00
11085;BME280;5596;46.826;8.650;2022-08-01T06:33:19;96431.88;;;19.05;100.00
11085;BME280;5596;46.826;8.650;2022-08-01T06:35:46;96414.06;;;19.03;100.00
11085;BME280;5596;46.826;8.650;2022-08-01T06:38:14;96428.81;;;19.07;100.00
11085;BME280;5596;46.826;8.650;2022-08-01T06:40:41;96421.16;;;19.09;100.00
11085;BME280;5596;46.826;8.650;2022-08-01T06:43:08;96419.78;;;19.11;100.00
11085;BME280;5596;46.826;8.650;2022-08-01T06:45:37;96411.53;;;19.16;100.00
11085;BME280;5596;46.826;8.650;2022-08-01T06:48:04;96407.94;;;19.21;100.00
11085;BME280;5596;46.826;8.650;2022-08-01T06:50:31;96404.69;;;19.19;100.00
11085;BME280;5596;46.826;8.650;2022-08-01T06:53:01;96402.75;;;19.19;100.00
11085;BME280;5596;46.826;8.650;2022-08-01T06:55:29;96407.63;;;19.27;100.00
11085;BME280;5596;46.826;8.650;2022-08-01T06:57:56;96406.53;;;19.28;100.00
11085;BME280;5596;46.826;8.650;2022-08-01T07:00:25;96413.66;;;19.30;100.00
11085;BME280;5596;46.826;8.650;2022-08-01T07:02:54;96410.59;;;19.31;100.00
11085;BME280;5596;46.826;8.650;2022-08-01T07:05:22;96415.53;;;19.34;100.00
11085;BME280;5596;46.826;8.650;2022-08-01T07:07:49;96408.13;;;19.35;100.00
11085;BME280;5596;46.826;8.650;2022-08-01T07:10:17;96409.22;;;19.39;100.00
11085;BME280;5596;46.826;8.650;2022-08-01T07:12:45;96408.94;;;19.35;100.00
11085;BME280;5596;46.826;8.650;2022-08-01T07:15:13;96407.78;;;19.41;100.00
11085;BME280;5596;46.826;8.650;2022-08-01T07:17:42;96406.16;;;19.40;100.00
11085;BME280;5596;46.826;8.650;2022-08-01T07:20:11;96402.84;;;19.48;100.00
11085;BME280;5596;46.826;8.650;2022-08-01T07:22:38;96392.63;;;19.59;100.00
11085;BME280;5596;46.826;8.650;2022-08-01T07:25:07;96394.88;;;19.86;100.00
11085;BME280;5596;46.826;8.650;2022-08-01T07:27:34;96394.31;;;20.42;100.00
11085;BME280;5596;46.826;8.650;2022-08-01T07:30:04;96403.50;;;20.98;100.00
11085;BME280;5596;46.826;8.650;2022-08-01T07:32:32;96393.31;;;21.60;100.00
11085;BME280;5596;46.826;8.650;2022-08-01T07:35:01;96388.81;;;21.97;100.00
11085;BME280;5596;46.826;8.650;2022-08-01T07:37:28;96384.13;;;22.16;96.41
11085;BME280;5596;46.826;8.650;2022-08-01T07:39:55;96385.56;;;22.41;96.45
11085;BME280;5596;46.826;8.650;2022-08-01T07:42:22;96383.81;;;22.72;93.67
11085;BME280;5596;46.826;8.650;2022-08-01T07:44:49;96381.28;;;23.03;91.90
11085;BME280;5596;46.826;8.650;2022-08-01T07:47:23;96382.44;;;23.38;86.59
11085;BME280;5596;46.826;8.650;2022-08-01T07:49:51;96379.41;;;23.48;83.85
11085;BME280;5596;46.826;8.650;2022-08-01T07:52:18;96372.84;;;23.35;84.21
11085;BME280;5596;46.826;8.650;2022-08-01T07:54:45;96379.34;;;23.39;83.44
11085;BME280;5596;46.826;8.650;2022-08-01T07:57:12;96375.03;;;23.61;82.37
11085;BME280;5596;46.826;8.650;2022-08-01T07:59:39;96382.53;;;24.13;79.97
11085;BME280;5596;46.826;8.650;2022-08-01T08:02:06;96386.97;;;24.54;77.61
11085;BME280;5596;46.826;8.650;2022-08-01T08:04:35;96376.38;;;24.47;72.46
11085;BME280;5596;46.826;8.650;2022-08-01T08:07:02;96375.28;;;24.57;72.50
11085;BME280;5596;46.826;8.650;2022-08-01T08:09:29;96371.13;;;24.77;72.95
11085;BME280;5596;46.826;8.650;2022-08-01T08:11:58;96376.63;;;25.25;71.99
11085;BME280;5596;46.826;8.650;2022-08-01T08:14:25;96374.72;;;25.60;69.68
11085;BME280;5596;46.826;8.650;2022-08-01T08:16:52;96377.13;;;25.96;66.70
11085;BME280;5596;46.826;8.650;2022-08-01T08:19:19;96366.19;;;26.17;65.34
11085;BME280;5596;46.826;8.650;2022-08-01T08:21:48;96366.16;;;26.25;63.77
11085;BME280;5596;46.826;8.650;2022-08-01T08:24:15;96363.53;;;26.37;64.32
11085;BME280;5596;46.826;8.650;2022-08-01T08:26:51;96368.91;;;26.43;64.93
11085;BME280;5596;46.826;8.650;2022-08-01T08:29:20;96370.84;;;26.80;63.18
11085;BME280;5596;46.826;8.650;2022-08-01T08:31:48;96370.22;;;27.13;61.39
11085;BME280;5596;46.826;8.650;2022-08-01T08:34:16;96377.06;;;27.36;60.70
11085;BME280;5596;46.826;8.650;2022-08-01T08:36:43;96364.00;;;27.36;60.84
11085;BME280;5596;46.826;8.650;2022-08-01T08:39:12;96364.41;;;27.47;61.80
11085;BME280;5596;46.826;8.650;2022-08-01T08:41:39;96376.41;;;27.39;62.34
11085;BME280;5596;46.826;8.650;2022-08-01T08:44:07;96372.72;;;27.56;60.43
11085;BME280;5596;46.826;8.650;2022-08-01T08:46:40;96373.31;;;27.61;60.17
11085;BME280;5596;46.826;8.650;2022-08-01T08:49:08;96366.72;;;27.45;61.90
11085;BME280;5596;46.826;8.650;2022-08-01T08:51:38;96367.09;;;27.64;59.81
11085;BME280;5596;46.826;8.650;2022-08-01T08:54:06;96370.13;;;27.71;60.03
11085;BME280;5596;46.826;8.650;2022-08-01T08:56:35;96356.84;;;27.77;58.93
11085;BME280;5596;46.826;8.650;2022-08-01T08:59:04;96353.00;;;28.02;59.88
11085;BME280;5596;46.826;8.650;2022-08-01T09:01:32;96362.22;;;27.94;59.45
11085;BME280;5596;46.826;8.650;2022-08-01T09:04:01;96351.69;;;27.88;60.46
11085;BME280;5596;46.826;8.650;2022-08-01T09:06:29;96355.09;;;28.05;59.44
11085;BME280;5596;46.826;8.650;2022-08-01T09:08:56;96350.78;;;27.96;57.35
11085;BME280;5596;46.826;8.650;2022-08-01T09:11:23;96349.50;;;27.93;58.05
11085;BME280;5596;46.826;8.650;2022-08-01T09:14:07;96349.22;;;28.07;56.99
11085;BME280;5596;46.826;8.650;2022-08-01T09:16:36;96345.41;;;27.78;57.34
11085;BME280;5596;46.826;8.650;2022-08-01T09:19:08;96342.94;;;27.98;56.13
11085;BME280;5596;46.826;8.650;2022-08-01T09:21:35;96348.00;;;27.96;57.15
11085;BME280;5596;46.826;8.650;2022-08-01T09:24:02;96335.34;;;28.07;56.06
11085;BME280;5596;46.826;8.650;2022-08-01T09:26:34;96334.94;;;28.29;54.89
11085;BME280;5596;46.826;8.650;2022-08-01T09:29:03;96337.50;;;28.58;54.78
11085;BME280;5596;46.826;8.650;2022-08-01T09:31:41;96330.13;;;28.75;51.67
11085;BME280;5596;46.826;8.650;2022-08-01T09:34:09;96319.28;;;28.82;51.40
11085;BME280;5596;46.826;8.650;2022-08-01T09:36:50;96326.47;;;28.83;51.09
11085;BME280;5596;46.826;8.650;2022-08-01T09:39:23;96324.38;;;28.80;50.34
11085;BME280;5596;46.826;8.650;2022-08-01T09:41:51;96325.97;;;28.93;51.08
11085;BME280;5596;46.826;8.650;2022-08-01T09:44:19;96317.97;;;29.04;49.12
11085;BME280;5596;46.826;8.650;2022-08-01T09:46:52;96325.03;;;29.01;49.44
11085;BME280;5596;46.826;8.650;2022-08-01T09:49:30;96319.94;;;29.15;48.69
11085;BME280;5596;46.826;8.650;2022-08-01T09:51:58;96308.09;;;29.18;48.24
11085;BME280;5596;46.826;8.650;2022-08-01T09:54:36;96304.81;;;29.28;49.29
11085;BME280;5596;46.826;8.650;2022-08-01T09:57:13;96304.38;;;29.39;48.03
11085;BME280;5596;46.826;8.650;2022-08-01T09:59:42;96294.59;;;29.45;48.62
11085;BME280;5596;46.826;8.650;2022-08-01T10:02:13;96286.63;;;29.43;49.92
11085;BME280;5596;46.826;8.650;2022-08-01T10:04:47;96288.03;;;29.65;48.85
11085;BME280;5596;46.826;8.650;2022-08-01T10:07:15;96278.38;;;29.75;48.24
11085;BME280;5596;46.826;8.650;2022-08-01T10:09:43;96273.50;;;29.71;46.72
11085;BME280;5596;46.826;8.650;2022-08-01T10:12:13;96275.75;;;29.66;47.13
11085;BME280;5596;46.826;8.650;2022-08-01T10:14:41;96268.84;;;29.60;48.04
11085;BME280;5596;46.826;8.650;2022-08-01T10:17:12;96285.81;;;29.70;47.41
11085;BME280;5596;46.826;8.650;2022-08-01T10:19:41;96262.72;;;29.70;48.72
11085;BME280;5596;46.826;8.650;2022-08-01T10:22:10;96273.81;;;29.82;49.21
11085;BME280;5596;46.826;8.650;2022-08-01T10:24:40;96273.69;;;29.79;48.60
11085;BME280;5596;46.826;8.650;2022-08-01T10:27:09;96262.63;;;29.94;48.25
11085;BME280;5596;46.826;8.650;2022-08-01T10:29:41;96269.13;;;30.14;48.60
11085;BME280;5596;46.826;8.650;2022-08-01T10:32:09;96255.50;;;29.81;46.11
11085;BME280;5596;46.826;8.650;2022-08-01T10:34:37;96252.75;;;29.69;44.79
11085;BME280;5596;46.826;8.650;2022-08-01T10:37:05;96250.72;;;29.82;47.50
11085;BME280;5596;46.826;8.650;2022-08-01T10:39:34;96250.38;;;29.83;47.67
11085;BME280;5596;46.826;8.650;2022-08-01T10:42:04;96253.41;;;29.78;47.63
11085;BME280;5596;46.826;8.650;2022-08-01T10:44:33;96245.84;;;29.63;46.11
11085;BME280;5596;46.826;8.650;2022-08-01T10:47:06;96247.88;;;29.50;47.14
11085;BME280;5596;46.826;8.650;2022-08-01T10:49:39;96232.72;;;29.48;48.11
11085;BME280;5596;46.826;8.650;2022-08-01T10:52:07;96237.41;;;29.59;47.66
11085;BME280;5596;46.826;8.650;2022-08-01T10:54:39;96236.97;;;29.73;46.76
11085;BME280;5596;46.826;8.650;2022-08-01T10:57:07;96231.28;;;29.97;48.38
11085;BME280;5596;46.826;8.650;2022-08-01T10:59:36;96224.38;;;30.07;47.59
11085;BME280;5596;46.826;8.650;2022-08-01T11:02:25;96221.59;;;30.23;47.60
11085;BME280;5596;46.826;8.650;2022-08-01T11:04:58;96222.41;;;30.23;45.64
11085;BME280;5596;46.826;8.650;2022-08-01T11:07:40;96225.19;;;30.23;46.28
11085;BME280;5596;46.826;8.650;2022-08-01T11:10:19;96220.53;;;30.43;45.62
11085;BME280;5596;46.826;8.650;2022-08-01T11:12:49;96219.53;;;30.35;44.14
11085;BME280;5596;46.826;8.650;2022-08-01T11:15:23;96213.31;;;30.42;45.65
11085;BME280;5596;46.826;8.650;2022-08-01T11:17:53;96218.44;;;30.56;42.57
11085;BME280;5596;46.826;8.650;2022-08-01T11:20:23;96217.91;;;30.50;42.06
11085;BME280;5596;46.826;8.650;2022-08-01T11:23:27;96209.53;;;30.50;42.46
11085;BME280;5596;46.826;8.650;2022-08-01T11:26:10;96210.69;;;30.65;42.18
11085;BME280;5596;46.826;8.650;2022-08-01T11:28:38;96196.91;;;30.53;42.94
11085;BME280;5596;46.826;8.650;2022-08-01T11:31:30;96202.69;;;30.63;42.30
11085;BME280;5596;46.826;8.650;2022-08-01T11:33:58;96194.94;;;30.72;43.08
11085;BME280;5596;46.826;8.650;2022-08-01T11:36:27;96192.09;;;30.88;43.17
11085;BME280;5596;46.826;8.650;2022-08-01T11:39:14;96190.44;;;30.83;42.02
11085;BME280;5596;46.826;8.650;2022-08-01T11:41:43;96185.97;;;30.98;42.06
11085;BME280;5596;46.826;8.650;2022-08-01T11:44:12;96176.25;;;31.08;42.02
11085;BME280;5596;46.826;8.650;2022-08-01T11:46:51;96182.16;;;31.06;40.21
11085;BME280;5596;46.826;8.650;2022-08-01T11:49:28;96170.44;;;31.16;42.14
11085;BME280;5596;46.826;8.650;2022-08-01T11:52:04;96173.72;;;31.22;42.92
11085;BME280;5596;46.826;8.650;2022-08-01T11:54:33;96180.34;;;31.33;41.54
11085;BME280;5596;46.826;8.650;2022-08-01T11:57:02;96161.59;;;31.53;40.50
11085;BME280;5596;46.826;8.650;2022-08-01T11:59:37;96154.50;;;31.55;40.01
11085;BME280;5596;46.826;8.650;2022-08-01T12:02:15;96166.06;;;31.57;40.51
11085;BME280;5596;46.826;8.650;2022-08-01T12:05:01;96165.84;;;31.66;40.43
11085;BME280;5596;46.826;8.650;2022-08-01T12:07:31;96161.44;;;31.65;39.79
11085;BME280;5596;46.826;8.650;2022-08-01T12:10:01;96159.53;;;31.69;41.58
11085;BME280;5596;46.826;8.650;2022-08-01T12:12:29;96157.50;;;31.89;39.65
11085;BME280;5596;46.826;8.650;2022-08-01T12:14:58;96162.41;;;31.95;39.55
11085;BME280;5596;46.826;8.650;2022-08-01T12:17:33;96156.47;;;31.97;39.52
11085;BME280;5596;46.826;8.650;2022-08-01T12:20:00;96166.13;;;31.80;39.48
11085;BME280;5596;46.826;8.650;2022-08-01T12:22:29;96157.44;;;31.85;39.88
11085;BME280;5596;46.826;8.650;2022-08-01T12:25:04;96160.72;;;31.68;38.70
11085;BME280;5596;46.826;8.650;2022-08-01T12:27:32;96153.88;;;31.66;38.84
11085;BME280;5596;46.826;8.650;2022-08-01T12:29:59;96154.44;;;31.75;37.77
11085;BME280;5596;46.826;8.650;2022-08-01T12:32:28;96156.97;;;31.61;38.91
11085;BME280;5596;46.826;8.650;2022-08-01T12:34:58;96150.84;;;31.74;39.62
11085;BME280;5596;46.826;8.650;2022-08-01T12:37:28;96168.53;;;31.82;39.02
11085;BME280;5596;46.826;8.650;2022-08-01T12:39:56;96152.75;;;31.89;39.04
11085;BME280;5596;46.826;8.650;2022-08-01T12:42:24;96156.31;;;31.67;39.62
11085;BME280;5596;46.826;8.650;2022-08-01T12:44:52;96146.19;;;31.82;39.51
11085;BME280;5596;46.826;8.650;2022-08-01T12:47:20;96134.41;;;31.92;38.18
11085;BME280;5596;46.826;8.650;2022-08-01T12:49:48;96142.13;;;31.76;38.73
11085;BME280;5596;46.826;8.650;2022-08-01T12:52:16;96135.34;;;31.77;39.42
11085;BME280;5596;46.826;8.650;2022-08-01T12:55:06;96133.44;;;31.81;39.11
11085;BME280;5596;46.826;8.650;2022-08-01T12:57:36;96137.72;;;31.98;38.71
11085;BME280;5596;46.826;8.650;2022-08-01T13:00:12;96142.22;;;31.83;38.93
11085;BME280;5596;46.826;8.650;2022-08-01T13:02:41;96137.81;;;31.82;39.92
11085;BME280;5596;46.826;8.650;2022-08-01T13:05:09;96135.28;;;31.96;39.15
11085;BME280;5596;46.826;8.650;2022-08-01T13:07:39;96134.41;;;31.92;39.12
11085;BME280;5596;46.826;8.650;2022-08-01T13:10:09;96131.63;;;32.15;38.26
11085;BME280;5596;46.826;8.650;2022-08-01T13:12:36;96144.47;;;32.19;39.24
11085;BME280;5596;46.826;8.650;2022-08-01T13:15:21;96141.25;;;32.17;38.32
11085;BME280;5596;46.826;8.650;2022-08-01T13:17:49;96137.28;;;32.18;39.38
11085;BME280;5596;46.826;8.650;2022-08-01T13:20:28;96140.66;;;32.08;38.97
11085;BME280;5596;46.826;8.650;2022-08-01T13:23:10;96123.44;;;32.03;38.85